Terminal Aerodrome Forecast
Issued by NWS Spokane, WA

Home | Current Version | Previous Version | Text Only | Print | Product List | Glossary On
Versions: 1 2 3 4 5 6 7 8 9 10 11 12 13 14 15 16 17 18 19 20 21 22 23 24 25 26 27 28 29 30 31 32 33
000
FTUS46 KOTX 301138
TAFEAT
TAF
KEAT 301138Z 3012/3112 30012KT P6SM SCT120
     FM301700 30015G24KT P6SM FEW150
     FM302200 30018G26KT P6SM FEW150
     FM310200 30015KT P6SM SKC
     FM310700 30010KT P6SM SKC=

USA.gov is the U.S. government's official web portal to all federal, state and local government web resources and services.